Time;durP1;ratioP1;P1;durP2;ratioP2;P2;SDS_P1;SDS_P2;PMS_P1;PMS_P2;Temp;Humidity;BMP_temperature;BMP_pressure;BME280_temperature;BME280_humidity;BME280_pressure;Samples;Min_cycle;Max_cycle;Signal;HPM_P1;HPM_P2
2021/10/17 00:01:05;;;;;;;;;;;;;;;8.37;67.85;101262.97;4922109;28;128923;-58
2021/10/17 00:03:31;;;;;;;;;;;;;;;8.38;68.03;101255.72;4922099;28;98401;-56
2021/10/17 00:05:57;;;;;;;;;;;;;;;8.39;67.54;101252.78;4923041;28;98520;-58
2021/10/17 00:08:23;;;;;;;;;;;;;;;8.39;67.55;101250.09;4922710;28;98018;-57
2021/10/17 00:10:48;;;;;;;;;;;;;;;8.38;68.01;101253.03;4922283;28;127449;-57
2021/10/17 00:13:14;;;;;;;;;;;;;;;8.38;67.70;101248.47;4921152;28;109310;-58
2021/10/17 00:15:40;;;;;;;;;;;;;;;8.38;67.58;101247.66;4921842;28;128083;-58
2021/10/17 00:18:07;;;;;;;;;;;;;;;8.37;67.78;101249.53;4921760;28;117483;-58
2021/10/17 00:20:33;;;;;;;;;;;;;;;8.36;67.63;101239.78;4923197;28;98696;-57
2021/10/17 00:22:59;;;;;;;;;;;;;;;8.36;67.63;101229.84;4921423;28;125674;-57
2021/10/17 00:25:25;;;;;;;;;;;;;;;8.35;67.79;101233.59;4921546;28;127649;-57
2021/10/17 00:27:51;;;;;;;;;;;;;;;8.34;67.91;101231.16;4921524;28;115817;-58
2021/10/17 00:30:17;;;;;;;;;;;;;;;8.32;67.74;101227.88;4888958;28;98377;-58
2021/10/17 00:32:43;;;;;;;;;;;;;;;8.31;67.57;101237.00;4921392;28;98496;-56
2021/10/17 00:35:09;;;;;;;;;;;;;;;8.29;67.94;101231.03;4922276;28;97973;-57
2021/10/17 00:37:35;;;;;;;;;;;;;;;8.27;68.20;101222.41;4922659;28;97902;-57
2021/10/17 00:40:03;;;;;;;;;;;;;;;8.25;67.75;101219.94;4922218;28;99237;-57
2021/10/17 00:42:29;;;;;;;;;;;;;;;8.23;67.65;101216.66;4920780;28;109172;-57
2021/10/17 00:44:59;;;;;;;;;;;;;;;8.23;68.24;101219.34;4922094;28;98454;-58
2021/10/17 00:47:25;;;;;;;;;;;;;;;8.24;68.18;101220.16;4922383;28;98158;-57
2021/10/17 00:49:51;;;;;;;;;;;;;;;8.23;67.85;101224.72;4921659;28;128447;-57
2021/10/17 00:52:17;;;;;;;;;;;;;;;8.24;68.24;101233.59;4921762;28;110423;-57
2021/10/17 00:54:43;;;;;;;;;;;;;;;8.26;67.97;101221.59;4922805;28;99243;-58
2021/10/17 00:57:11;;;;;;;;;;;;;;;8.28;68.04;101232.09;4922575;28;97679;-57
2021/10/17 00:59:37;;;;;;;;;;;;;;;8.27;68.44;101225.91;4903277;28;119043;-58
2021/10/17 01:02:02;;;;;;;;;;;;;;;8.27;68.07;101227.75;4935360;28;116388;-57
2021/10/17 01:04:28;;;;;;;;;;;;;;;8.29;68.23;101226.50;4887021;28;116543;-57
2021/10/17 01:06:55;;;;;;;;;;;;;;;8.29;68.42;101223.81;4887499;28;98015;-57
2021/10/17 01:09:20;;;;;;;;;;;;;;;8.30;68.28;101222.75;4921220;28;125906;-58
2021/10/17 01:11:47;;;;;;;;;;;;;;;8.31;68.03;101216.31;4903299;28;127939;-58
2021/10/17 01:14:20;;;;;;;;;;;;;;;8.32;67.57;101219.81;4920832;28;109478;-57
2021/10/17 01:16:47;;;;;;;;;;;;;;;8.32;68.13;101230.56;4922156;28;108429;-57
2021/10/17 01:19:13;;;;;;;;;;;;;;;8.32;68.24;101236.75;4921949;28;97969;-57
2021/10/17 01:21:39;;;;;;;;;;;;;;;8.33;68.45;101229.50;4921843;28;98259;-57
2021/10/17 01:24:05;;;;;;;;;;;;;;;8.34;68.32;101225.78;4921476;28;97862;-58
2021/10/17 01:26:31;;;;;;;;;;;;;;;8.36;68.22;101223.66;4921995;28;100025;-58
2021/10/17 01:28:57;;;;;;;;;;;;;;;8.36;67.98;101211.03;4886872;28;98403;-57
2021/10/17 01:31:34;;;;;;;;;;;;;;;8.37;68.13;101217.28;4902667;28;128746;-58
2021/10/17 01:34:00;;;;;;;;;;;;;;;8.37;68.24;101206.56;4902853;28;101745;-59
2021/10/17 01:36:26;;;;;;;;;;;;;;;8.36;68.40;101207.53;4921600;28;108685;-57
2021/10/17 01:38:52;;;;;;;;;;;;;;;8.37;68.42;101206.56;4936286;28;98272;-57
2021/10/17 01:41:17;;;;;;;;;;;;;;;8.37;68.29;101193.13;4935301;28;128862;-57
2021/10/17 01:43:43;;;;;;;;;;;;;;;8.38;68.29;101202.00;4934448;28;127911;-58
2021/10/17 01:46:09;;;;;;;;;;;;;;;8.38;68.29;101197.44;4921093;28;114610;-57
2021/10/17 01:48:35;;;;;;;;;;;;;;;8.39;68.71;101209.00;4919884;28;127589;-57
2021/10/17 01:51:01;;;;;;;;;;;;;;;8.40;68.45;101207.94;4920526;28;128493;-57
2021/10/17 01:53:29;;;;;;;;;;;;;;;8.40;68.50;101202.56;4921702;28;97943;-58
2021/10/17 01:55:59;;;;;;;;;;;;;;;8.40;68.55;101199.88;4922028;28;97945;-57
2021/10/17 01:58:25;;;;;;;;;;;;;;;8.39;68.29;101199.06;4902137;28;98706;-58
2021/10/17 02:00:51;;;;;;;;;;;;;;;8.39;68.11;101193.69;4921483;28;114558;-57
2021/10/17 02:03:17;;;;;;;;;;;;;;;8.39;68.14;101191.00;4924623;28;116358;-58
2021/10/17 02:05:43;;;;;;;;;;;;;;;8.38;68.11;101197.44;4923909;28;117356;-58
2021/10/17 02:08:09;;;;;;;;;;;;;;;8.39;68.40;101195.56;4923437;28;112628;-58
2021/10/17 02:10:35;;;;;;;;;;;;;;;8.38;68.29;101196.63;4923102;28;128046;-58
2021/10/17 02:13:01;;;;;;;;;;;;;;;8.39;68.30;101190.19;4923411;28;127606;-58
2021/10/17 02:15:27;;;;;;;;;;;;;;;8.39;68.22;101192.88;4924324;28;101305;-57
2021/10/17 02:17:53;;;;;;;;;;;;;;;8.37;68.54;101190.44;4923155;28;126237;-60
2021/10/17 02:20:19;;;;;;;;;;;;;;;8.36;68.42;101194.94;4923955;28;128326;-57
2021/10/17 02:22:45;;;;;;;;;;;;;;;8.35;68.43;101193.31;4905476;28;127245;-57
2021/10/17 02:25:11;;;;;;;;;;;;;;;8.35;68.04;101190.63;4923865;28;116222;-58
2021/10/17 02:27:37;;;;;;;;;;;;;;;8.36;68.48;101191.44;4922992;28;99326;-57
2021/10/17 02:30:04;;;;;;;;;;;;;;;8.36;68.61;101191.44;4922561;28;128403;-57
2021/10/17 02:32:30;;;;;;;;;;;;;;;8.36;68.83;101188.75;4922689;28;115047;-58
2021/10/17 02:34:56;;;;;;;;;;;;;;;8.35;68.56;101182.56;4924324;28;97829;-58
2021/10/17 02:37:22;;;;;;;;;;;;;;;8.35;68.60;101193.31;4922705;28;129135;-58
2021/10/17 02:39:48;;;;;;;;;;;;;;;8.35;68.85;101193.31;4922557;28;128046;-56
2021/10/17 02:42:14;;;;;;;;;;;;;;;8.34;68.75;101186.31;4923167;28;126272;-58
2021/10/17 02:44:39;;;;;;;;;;;;;;;8.36;68.67;101188.75;4907037;28;98471;-57
2021/10/17 02:47:05;;;;;;;;;;;;;;;8.36;68.62;101188.75;4904581;28;128278;-57
2021/10/17 02:49:31;;;;;;;;;;;;;;;8.35;68.86;101187.94;4923026;28;126421;-58
2021/10/17 02:51:57;;;;;;;;;;;;;;;8.36;68.78;101189.56;4923775;28;97676;-58
2021/10/17 02:54:24;;;;;;;;;;;;;;;8.36;68.64;101188.75;4923407;28;115220;-57
2021/10/17 02:56:50;;;;;;;;;;;;;;;8.36;68.50;101186.06;4924235;28;99288;-58
2021/10/17 02:59:16;;;;;;;;;;;;;;;8.35;68.59;101182.56;4922628;28;99110;-58
2021/10/17 03:01:42;;;;;;;;;;;;;;;8.36;68.53;101178.00;4923192;28;125798;-58
2021/10/17 03:04:08;;;;;;;;;;;;;;;8.35;68.45;101173.69;4922697;28;116703;-57
2021/10/17 03:06:34;;;;;;;;;;;;;;;8.35;68.42;101173.69;4923742;28;98924;-57
2021/10/17 03:09:00;;;;;;;;;;;;;;;8.35;68.94;101176.38;4904516;28;100174;-57
2021/10/17 03:11:26;;;;;;;;;;;;;;;8.35;68.68;101179.06;4923001;28;129121;-58
2021/10/17 03:13:52;;;;;;;;;;;;;;;8.35;68.85;101179.06;4923000;28;97765;-58
2021/10/17 03:16:18;;;;;;;;;;;;;;;8.35;68.54;101176.38;4937963;28;98043;-58
2021/10/17 03:18:44;;;;;;;;;;;;;;;8.36;68.55;101178.81;4922117;28;128318;-57
2021/10/17 03:21:09;;;;;;;;;;;;;;;8.35;68.47;101179.88;4922435;28;126985;-57
2021/10/17 03:23:35;;;;;;;;;;;;;;;8.35;68.65;101179.06;4920807;28;110318;-57
2021/10/17 03:26:01;;;;;;;;;;;;;;;8.35;68.41;101177.19;4923848;28;98286;-57
2021/10/17 03:28:27;;;;;;;;;;;;;;;8.36;68.86;101181.50;4922722;28;98182;-57
2021/10/17 03:30:55;;;;;;;;;;;;;;;8.35;68.25;101173.69;4922338;28;108231;-57
2021/10/17 03:33:21;;;;;;;;;;;;;;;8.34;68.88;101178.25;4905312;28;98227;-58
2021/10/17 03:35:47;;;;;;;;;;;;;;;8.34;68.85;101180.94;4922966;28;98061;-58
2021/10/17 03:38:13;;;;;;;;;;;;;;;8.33;68.70;101173.94;4921984;28;127987;-58
2021/10/17 03:40:39;;;;;;;;;;;;;;;8.33;68.53;101173.09;4921973;28;127506;-60
2021/10/17 03:43:05;;;;;;;;;;;;;;;8.32;68.67;101168.78;4922407;28;98123;-57
2021/10/17 03:45:31;;;;;;;;;;;;;;;8.32;68.14;101174.97;4923080;28;107017;-58
2021/10/17 03:47:57;;;;;;;;;;;;;;;8.31;68.84;101180.59;4922144;28;99071;-58
2021/10/17 03:50:23;;;;;;;;;;;;;;;8.32;69.09;101176.84;4921963;28;128373;-58
2021/10/17 03:52:49;;;;;;;;;;;;;;;8.31;68.70;101177.91;4921390;28;115439;-58
2021/10/17 03:55:15;;;;;;;;;;;;;;;8.31;68.42;101170.66;4921747;28;128808;-58
2021/10/17 03:57:41;;;;;;;;;;;;;;;8.31;68.58;101170.66;4921516;28;127690;-57
2021/10/17 04:00:08;;;;;;;;;;;;;;;8.31;68.42;101169.84;4922963;28;97855;-58
2021/10/17 04:02:36;;;;;;;;;;;;;;;8.31;68.45;101170.66;4921515;28;105551;-58
2021/10/17 04:05:02;;;;;;;;;;;;;;;8.31;68.56;101164.47;4922221;28;126390;-59
2021/10/17 04:07:28;;;;;;;;;;;;;;;8.29;68.69;101162.03;4922253;28;99096;-58
2021/10/17 04:09:54;;;;;;;;;;;;;;;8.29;68.39;101166.56;4922686;28;104337;-57
2021/10/17 04:12:20;;;;;;;;;;;;;;;8.28;68.85;101170.28;4922296;28;116633;-57
2021/10/17 04:14:46;;;;;;;;;;;;;;;8.27;68.37;101172.16;4922152;28;127980;-57
2021/10/17 04:17:12;;;;;;;;;;;;;;;8.26;68.92;101167.84;4922579;28;98837;-58
2021/10/17 04:19:38;;;;;;;;;;;;;;;8.26;68.49;101167.84;4921555;28;127501;-58
2021/10/17 04:22:04;;;;;;;;;;;;;;;8.27;68.34;101174.03;4922366;28;97867;-58
2021/10/17 04:24:30;;;;;;;;;;;;;;;8.26;68.92;101164.34;4921837;28;106681;-58
2021/10/17 04:26:56;;;;;;;;;;;;;;;8.27;68.50;101174.03;4922080;28;128512;-60
2021/10/17 04:29:21;;;;;;;;;;;;;;;8.27;68.36;101169.50;4922253;28;107815;-57
2021/10/17 04:31:47;;;;;;;;;;;;;;;8.27;68.61;101166.00;4922125;28;105342;-58
2021/10/17 04:34:13;;;;;;;;;;;;;;;8.26;68.25;101167.03;4922096;28;112405;-57
2021/10/17 04:36:39;;;;;;;;;;;;;;;8.27;68.43;101157.94;4922175;28;98459;-58
2021/10/17 04:39:06;;;;;;;;;;;;;;;8.24;68.77;101153.84;4903161;28;112156;-57
2021/10/17 04:41:33;;;;;;;;;;;;;;;8.24;68.67;101153.84;4904562;28;97897;-57
2021/10/17 04:43:59;;;;;;;;;;;;;;;8.24;68.56;101155.69;4922132;28;98552;-57
2021/10/17 04:46:25;;;;;;;;;;;;;;;8.25;68.64;101160.00;4904345;28;100636;-57
2021/10/17 04:48:51;;;;;;;;;;;;;;;8.24;68.49;101159.19;4920655;28;127875;-58
2021/10/17 04:51:16;;;;;;;;;;;;;;;8.24;68.54;101156.53;4922192;28;117544;-57
2021/10/17 04:53:42;;;;;;;;;;;;;;;8.24;68.33;101158.38;4921053;28;128588;-57
2021/10/17 04:56:08;;;;;;;;;;;;;;;8.24;68.53;101164.56;4921323;28;128335;-57
2021/10/17 04:58:35;;;;;;;;;;;;;;;8.24;68.42;101150.34;4920953;28;127017;-59
2021/10/17 05:01:01;;;;;;;;;;;;;;;8.23;68.45;101148.72;4922481;28;99893;-57
2021/10/17 05:03:27;;;;;;;;;;;;;;;8.20;68.18;101152.66;4920998;28;127300;-56
2021/10/17 05:05:53;;;;;;;;;;;;;;;8.19;68.18;101156.41;4920239;28;129199;-58
2021/10/17 05:08:19;;;;;;;;;;;;;;;8.18;68.40;101162.03;4920955;28;106710;-57
2021/10/17 05:10:45;;;;;;;;;;;;;;;8.18;68.35;101162.84;4922005;28;117832;-57
2021/10/17 05:13:11;;;;;;;;;;;;;;;8.16;68.80;101159.56;4921731;28;98984;-58
2021/10/17 05:15:37;;;;;;;;;;;;;;;8.18;68.68;101165.53;4921235;28;113337;-57
2021/10/17 05:18:03;;;;;;;;;;;;;;;8.19;68.58;101160.97;4920296;28;115457;-58
2021/10/17 05:20:29;;;;;;;;;;;;;;;8.20;68.45;101165.28;4921616;28;116803;-57
2021/10/17 05:22:55;;;;;;;;;;;;;;;8.18;68.73;101165.53;4921769;28;99063;-57
2021/10/17 05:25:21;;;;;;;;;;;;;;;8.18;68.55;101170.09;4920264;28;123490;-58
2021/10/17 05:27:47;;;;;;;;;;;;;;;8.18;68.28;101173.59;4921291;28;98879;-58
2021/10/17 05:30:13;;;;;;;;;;;;;;;8.18;68.57;101172.78;4921180;28;116877;-58
2021/10/17 05:32:38;;;;;;;;;;;;;;;8.18;68.41;101168.22;4921741;28;97901;-57
2021/10/17 05:35:05;;;;;;;;;;;;;;;8.19;68.83;101172.53;4920565;28;102998;-56
2021/10/17 05:37:30;;;;;;;;;;;;;;;8.20;68.53;101167.97;4920342;28;100885;-58
2021/10/17 05:39:56;;;;;;;;;;;;;;;8.20;68.26;101176.03;4921267;28;117894;-57
2021/10/17 05:42:22;;;;;;;;;;;;;;;8.21;68.76;101177.66;4919367;28;128844;-58
2021/10/17 05:44:48;;;;;;;;;;;;;;;8.20;68.49;101173.34;4919598;28;128966;-57
2021/10/17 05:47:14;;;;;;;;;;;;;;;8.21;68.46;101178.47;4920790;28;115036;-57
2021/10/17 05:49:40;;;;;;;;;;;;;;;8.21;68.27;101181.16;4920701;28;114643;-56
2021/10/17 05:52:06;;;;;;;;;;;;;;;8.22;68.14;101177.44;4921096;28;98366;-58
2021/10/17 05:54:32;;;;;;;;;;;;;;;8.22;68.18;101177.44;4919732;28;129784;-59
2021/10/17 05:56:58;;;;;;;;;;;;;;;8.23;68.50;101183.63;4919797;28;128725;-58
2021/10/17 05:59:24;;;;;;;;;;;;;;;8.24;68.39;101191.44;4934052;28;118168;-58
2021/10/17 06:01:50;;;;;;;;;;;;;;;8.26;68.82;101185.84;4921354;28;98066;-57
2021/10/17 06:04:16;;;;;;;;;;;;;;;8.25;67.82;101186.88;4919592;28;129292;-58
2021/10/17 06:06:42;;;;;;;;;;;;;;;8.27;68.37;101188.28;4920141;28;127513;-57
2021/10/17 06:09:08;;;;;;;;;;;;;;;8.27;68.46;101188.28;4921288;28;98079;-58
2021/10/17 06:11:35;;;;;;;;;;;;;;;8.30;68.47;101190.50;4921627;28;98342;-58
2021/10/17 06:14:01;;;;;;;;;;;;;;;8.32;68.55;101192.94;4918909;28;97785;-57
2021/10/17 06:16:27;;;;;;;;;;;;;;;8.33;68.42;101187.38;4917893;28;97900;-58
2021/10/17 06:18:53;;;;;;;;;;;;;;;8.33;68.15;101192.75;4917353;28;98313;-58
2021/10/17 06:21:19;;;;;;;;;;;;;;;8.35;68.32;101193.31;4918313;28;98434;-58
2021/10/17 06:23:45;;;;;;;;;;;;;;;8.37;68.25;101195.81;4917364;28;98535;-58
2021/10/17 06:26:11;;;;;;;;;;;;;;;8.40;68.33;101199.88;4917198;28;127720;-57
2021/10/17 06:28:37;;;;;;;;;;;;;;;8.45;67.97;101202.66;4917008;28;115211;-58
2021/10/17 06:31:03;;;;;;;;;;;;;;;8.49;68.38;101201.97;4916618;28;127426;-57
2021/10/17 06:33:28;;;;;;;;;;;;;;;8.52;68.07;101193.44;4917679;28;99276;-57
2021/10/17 06:35:54;;;;;;;;;;;;;;;8.57;67.93;101198.13;4916281;28;126472;-59
2021/10/17 06:38:20;;;;;;;;;;;;;;;8.61;67.90;101201.97;4917220;28;98193;-57
2021/10/17 06:40:46;;;;;;;;;;;;;;;8.65;67.99;101207.69;4917690;28;101003;-58
2021/10/17 06:43:12;;;;;;;;;;;;;;;8.68;67.80;101197.25;4916386;28;126070;-58
2021/10/17 06:45:38;;;;;;;;;;;;;;;8.74;67.28;101208.94;4917329;28;127498;-57
2021/10/17 06:48:04;;;;;;;;;;;;;;;8.77;68.11;101219.22;4919145;28;107982;-58
2021/10/17 06:50:30;;;;;;;;;;;;;;;8.80;67.73;101213.34;4919953;28;128248;-57
2021/10/17 06:52:57;;;;;;;;;;;;;;;8.83;67.44;101208.31;4919138;28;128305;-58
2021/10/17 06:55:23;;;;;;;;;;;;;;;8.89;67.33;101216.53;4921102;28;98467;-57
2021/10/17 06:57:48;;;;;;;;;;;;;;;8.93;67.03;101218.50;4920650;28;116247;-58
2021/10/17 07:00:15;;;;;;;;;;;;;;;8.97;67.13;101211.59;4921713;28;98469;-56
2021/10/17 07:02:41;;;;;;;;;;;;;;;9.03;67.21;101216.00;4920305;28;98632;-57
2021/10/17 07:05:07;;;;;;;;;;;;;;;9.13;66.99;101214.56;4919186;28;127577;-57
2021/10/17 07:07:33;;;;;;;;;;;;;;;9.20;67.28;101217.94;4920137;28;115580;-57
2021/10/17 07:09:59;;;;;;;;;;;;;;;9.29;67.17;101219.19;4919862;28;127367;-57
2021/10/17 07:12:25;;;;;;;;;;;;;;;9.40;66.64;101212.13;4920294;28;99068;-57
2021/10/17 07:14:52;;;;;;;;;;;;;;;9.52;66.37;101213.69;4919119;28;123064;-57
2021/10/17 07:17:19;;;;;;;;;;;;;;;9.69;65.94;101215.59;4920093;28;97903;-57
2021/10/17 07:19:45;;;;;;;;;;;;;;;9.86;66.25;101221.78;4920094;28;107282;-56
2021/10/17 07:22:11;;;;;;;;;;;;;;;10.02;65.59;101221.00;4920720;28;98407;-58
2021/10/17 07:24:37;;;;;;;;;;;;;;;10.17;65.30;101220.41;4919048;28;125913;-57
2021/10/17 07:27:03;;;;;;;;;;;;;;;10.37;65.13;101219.91;4920317;28;99474;-56
2021/10/17 07:29:29;;;;;;;;;;;;;;;10.52;64.95;101219.31;4919141;28;103124;-57
2021/10/17 07:31:55;;;;;;;;;;;;;;;10.68;64.33;101221.16;4918789;28;127348;-57
2021/10/17 07:34:21;;;;;;;;;;;;;;;10.79;64.63;101217.53;4919560;28;97828;-57
2021/10/17 07:36:47;;;;;;;;;;;;;;;10.89;64.40;101219.56;4919264;28;115031;-58
2021/10/17 07:39:13;;;;;;;;;;;;;;;11.04;63.84;101217.03;4921753;28;128070;-58
2021/10/17 07:41:41;;;;;;;;;;;;;;;11.23;63.48;101216.69;4919558;28;112524;-57
2021/10/17 07:44:07;;;;;;;;;;;;;;;11.38;63.19;101219.56;4919686;28;97847;-57
2021/10/17 07:46:33;;;;;;;;;;;;;;;11.64;63.18;101211.72;4919897;28;118224;-57
2021/10/17 07:49:00;;;;;;;;;;;;;;;12.03;62.02;101205.06;4919689;28;98647;-57
2021/10/17 07:51:26;;;;;;;;;;;;;;;12.44;61.31;101215.31;4919473;28;122105;-58
2021/10/17 07:53:52;;;;;;;;;;;;;;;12.68;61.24;101208.41;4919259;28;98454;-58
2021/10/17 07:56:18;;;;;;;;;;;;;;;12.94;60.70;101212.03;4901987;28;98791;-58
2021/10/17 07:58:44;;;;;;;;;;;;;;;13.34;60.05;101213.28;4917833;28;128395;-57
2021/10/17 08:01:10;;;;;;;;;;;;;;;13.80;59.42;101207.91;4919501;28;99015;-57
2021/10/17 08:03:36;;;;;;;;;;;;;;;14.29;58.48;101215.47;4917065;28;98636;-58
2021/10/17 08:06:02;;;;;;;;;;;;;;;14.74;57.86;101211.03;4902211;28;98097;-58
2021/10/17 08:08:28;;;;;;;;;;;;;;;15.12;57.29;101214.13;4918309;28;127341;-57
2021/10/17 08:10:54;;;;;;;;;;;;;;;15.49;57.04;101210.13;4918377;28;127167;-57
2021/10/17 08:13:21;;;;;;;;;;;;;;;16.06;55.93;101212.13;4919074;28;98160;-57
2021/10/17 08:15:47;;;;;;;;;;;;;;;16.75;55.08;101220.97;4920537;28;98812;-58
2021/10/17 08:18:12;;;;;;;;;;;;;;;17.15;54.30;101206.00;4917695;28;127829;-57
2021/10/17 08:20:38;;;;;;;;;;;;;;;17.38;54.04;101219.88;4918127;28;128994;-57
2021/10/17 08:23:04;;;;;;;;;;;;;;;18.15;52.95;101208.56;4918602;28;116677;-58
2021/10/17 08:25:32;;;;;;;;;;;;;;;19.09;51.47;101218.19;4918522;28;113427;-58
2021/10/17 08:27:57;;;;;;;;;;;;;;;19.88;50.28;101212.28;4919280;28;98262;-59
2021/10/17 08:30:23;;;;;;;;;;;;;;;21.24;48.24;101219.75;4919927;28;98673;-59
2021/10/17 08:32:49;;;;;;;;;;;;;;;23.12;45.55;101232.91;4917453;28;128735;-57
2021/10/17 08:35:15;;;;;;;;;;;;;;;24.32;44.32;101232.13;4918484;28;110447;-58
2021/10/17 08:37:41;;;;;;;;;;;;;;;24.60;44.52;101244.16;4919333;28;98212;-58
2021/10/17 08:40:08;;;;;;;;;;;;;;;24.43;45.37;101238.84;4918274;28;128306;-59
2021/10/17 08:42:34;;;;;;;;;;;;;;;23.67;46.48;101232.66;4919152;28;102698;-58
2021/10/17 08:45:00;;;;;;;;;;;;;;;24.03;45.46;101235.88;4900058;28;117082;-58
2021/10/17 08:47:27;;;;;;;;;;;;;;;24.60;44.66;101230.38;4918292;28;126182;-57
2021/10/17 08:49:54;;;;;;;;;;;;;;;25.89;42.71;101225.97;4919866;28;98546;-59
2021/10/17 08:52:20;;;;;;;;;;;;;;;27.43;40.67;101233.28;4918714;28;98509;-60
2021/10/17 08:54:46;;;;;;;;;;;;;;;28.91;38.78;101232.00;4918478;28;117362;-58
2021/10/17 08:57:12;;;;;;;;;;;;;;;30.17;37.33;101240.72;4918400;28;98809;-60
2021/10/17 08:59:43;;;;;;;;;;;;;;;30.94;36.38;101230.63;4898537;28;98719;-58
2021/10/17 09:02:18;;;;;;;;;;;;;;;30.91;36.70;101223.06;4931460;28;119431;-58
2021/10/17 09:04:56;;;;;;;;;;;;;;;30.71;36.94;101223.31;4917731;28;97869;-58
2021/10/17 09:07:22;;;;;;;;;;;;;;;30.02;38.12;101214.75;4917950;28;115750;-60
2021/10/17 09:10:14;;;;;;;;;;;;;;;29.14;39.03;101218.88;4917351;28;128416;-60
2021/10/17 09:12:42;;;;;;;;;;;;;;;27.84;40.46;101201.31;4917896;28;99271;-58
2021/10/17 09:15:30;;;;;;;;;;;;;;;27.01;40.51;101194.41;4918289;28;98043;-58
2021/10/17 09:18:09;;;;;;;;;;;;;;;26.26;41.01;101198.16;4917673;28;98087;-59
2021/10/17 09:20:56;;;;;;;;;;;;;;;25.85;40.76;101197.47;4918804;28;97962;-58
2021/10/17 09:23:22;;;;;;;;;;;;;;;25.35;41.06;101199.63;4917713;28;97877;-60
2021/10/17 09:25:52;;;;;;;;;;;;;;;24.99;41.46;101200.47;4919363;28;97966;-58
2021/10/17 09:28:21;;;;;;;;;;;;;;;25.10;40.68;101187.03;4900237;28;114598;-59
2021/10/17 09:31:06;;;;;;;;;;;;;;;26.06;39.59;101187.00;4917795;28;120044;-58
2021/10/17 09:33:33;;;;;;;;;;;;;;;27.45;37.93;101177.56;4917709;28;99562;-58
2021/10/17 09:35:59;;;;;;;;;;;;;;;28.59;36.44;101182.41;4917992;28;108207;-59
2021/10/17 09:38:35;;;;;;;;;;;;;;;29.67;35.61;101195.72;4899217;28;114901;-60
2021/10/17 09:41:18;;;;;;;;;;;;;;;30.68;34.44;101184.34;4918412;28;99178;-60
2021/10/17 09:43:50;;;;;;;;;;;;;;;31.49;33.25;101186.78;4917533;28;98411;-58
2021/10/17 09:46:16;;;;;;;;;;;;;;;32.24;32.61;101181.31;4918510;28;97832;-60
2021/10/17 09:48:42;;;;;;;;;;;;;;;32.83;31.94;101183.66;4917304;28;128440;-60
2021/10/17 09:51:10;;;;;;;;;;;;;;;33.25;30.93;101181.97;4917796;28;120947;-58
2021/10/17 09:53:52;;;;;;;;;;;;;;;33.86;30.72;101182.41;4917963;28;98329;-58
2021/10/17 09:56:25;;;;;;;;;;;;;;;34.51;29.40;101176.34;4915229;28;97857;-59
2021/10/17 09:58:52;;;;;;;;;;;;;;;35.59;28.47;101174.66;4918373;28;98750;-60
2021/10/17 10:01:20;;;;;;;;;;;;;;;36.00;27.66;101161.63;4918116;28;98323;-59
2021/10/17 10:03:46;;;;;;;;;;;;;;;36.26;27.44;101165.59;4895452;28;119647;-59
2021/10/17 10:06:12;;;;;;;;;;;;;;;36.26;27.37;101160.78;4912662;28;117537;-59
2021/10/17 10:08:38;;;;;;;;;;;;;;;36.32;26.85;101164.69;4913427;28;98588;-59
2021/10/17 10:11:04;;;;;;;;;;;;;;;36.46;26.69;101158.03;4905161;28;127117;-60
2021/10/17 10:13:31;;;;;;;;;;;;;;;36.26;26.72;101155.16;4898257;28;126776;-60
2021/10/17 10:15:58;;;;;;;;;;;;;;;35.98;26.94;101155.66;4895126;28;97782;-60
2021/10/17 10:18:25;;;;;;;;;;;;;;;35.95;26.78;101143.25;4912680;28;98677;-59
2021/10/17 10:20:51;;;;;;;;;;;;;;;35.78;26.71;101141.53;4896273;28;117708;-59
2021/10/17 10:23:17;;;;;;;;;;;;;;;35.27;26.97;101152.66;4893349;28;127799;-59
2021/10/17 10:25:43;;;;;;;;;;;;;;;34.69;26.92;101141.34;4889178;28;98152;-60
2021/10/17 10:28:12;;;;;;;;;;;;;;;34.62;27.13;101141.41;4900598;28;126218;-60
2021/10/17 10:30:38;;;;;;;;;;;;;;;34.82;26.66;101147.22;4915895;28;98972;-60
2021/10/17 10:33:13;;;;;;;;;;;;;;;34.85;26.54;101132.34;4900605;28;120230;-58
2021/10/17 10:36:09;;;;;;;;;;;;;;;34.64;26.26;101139.00;4902897;28;98405;-58
2021/10/17 10:38:53;;;;;;;;;;;;;;;34.51;26.62;101132.38;4901303;28;99270;-58
2021/10/17 10:41:20;;;;;;;;;;;;;;;33.54;27.46;101139.94;4902245;28;98362;-58
2021/10/17 10:43:46;;;;;;;;;;;;;;;33.29;27.68;101131.66;4898797;28;102797;-60
2021/10/17 10:46:14;;;;;;;;;;;;;;;31.63;28.66;101133.06;4901055;28;115965;-58
2021/10/17 10:48:47;;;;;;;;;;;;;;;30.84;29.23;101131.19;4899181;28;99130;-59
2021/10/17 10:51:43;;;;;;;;;;;;;;;29.86;29.71;101123.31;4900506;28;98511;-60
2021/10/17 10:54:32;;;;;;;;;;;;;;;28.68;30.83;101134.97;4913807;28;98120;-58
2021/10/17 10:56:58;;;;;;;;;;;;;;;27.85;30.76;101132.84;4897155;28;98189;-60
2021/10/17 10:59:45;;;;;;;;;;;;;;;27.21;30.70;101128.88;4900151;28;128126;-58
2021/10/17 11:02:14;;;;;;;;;;;;;;;25.98;31.75;101127.22;4900848;28;98674;-58
2021/10/17 11:04:44;;;;;;;;;;;;;;;25.21;31.80;101122.78;4920752;28;98102;-60
2021/10/17 11:07:17;;;;;;;;;;;;;;;25.24;31.91;101126.78;4935362;28;98142;-59
2021/10/17 11:09:43;;;;;;;;;;;;;;;24.71;32.48;101131.50;4920419;28;119912;-58
2021/10/17 11:12:09;;;;;;;;;;;;;;;24.39;32.44;101130.50;4919672;28;126949;-59
2021/10/17 11:14:35;;;;;;;;;;;;;;;24.21;32.60;101124.41;4902315;28;98285;-58
2021/10/17 11:17:08;;;;;;;;;;;;;;;23.81;33.30;101127.75;4918090;28;116373;-57
2021/10/17 11:19:34;;;;;;;;;;;;;;;23.47;33.68;101129.72;4920303;28;99319;-58
2021/10/17 11:22:03;;;;;;;;;;;;;;;23.08;33.79;101133.00;4901935;28;127227;-59
2021/10/17 11:24:29;;;;;;;;;;;;;;;22.58;34.40;101125.53;4920014;28;98352;-58
2021/10/17 11:27:11;;;;;;;;;;;;;;;22.13;34.76;101115.09;4920505;28;97781;-59
2021/10/17 11:29:41;;;;;;;;;;;;;;;21.73;34.84;101124.44;4915233;28;99155;-59
2021/10/17 11:32:08;;;;;;;;;;;;;;;21.51;35.11;101119.94;4919707;28;99045;-59
2021/10/17 11:34:34;;;;;;;;;;;;;;;21.34;35.30;101122.72;4918949;28;98116;-57
2021/10/17 11:37:23;;;;;;;;;;;;;;;21.19;35.29;101128.66;4920252;28;97932;-57
2021/10/17 11:40:03;;;;;;;;;;;;;;;20.93;35.38;101123.16;4915619;28;100059;-59
2021/10/17 11:42:30;;;;;;;;;;;;;;;20.65;35.75;101128.94;4913747;28;98681;-57
2021/10/17 11:44:56;;;;;;;;;;;;;;;20.35;35.96;101130.59;4919806;28;100249;-59
2021/10/17 11:47:22;;;;;;;;;;;;;;;20.14;36.37;101135.03;4919148;28;116453;-59
2021/10/17 11:49:48;;;;;;;;;;;;;;;20.00;36.46;101124.16;4920088;28;98255;-58
2021/10/17 11:52:15;;;;;;;;;;;;;;;19.99;36.34;101120.63;4919635;28;98154;-59
2021/10/17 11:54:43;;;;;;;;;;;;;;;19.92;36.37;101108.53;4919486;28;98804;-58
2021/10/17 11:57:09;;;;;;;;;;;;;;;19.76;36.53;101110.84;4920358;28;97923;-59
2021/10/17 11:59:35;;;;;;;;;;;;;;;19.64;36.70;101118.81;4920229;28;98591;-59
2021/10/17 12:02:01;;;;;;;;;;;;;;;19.55;36.68;101116.00;4917129;28;112033;-57
2021/10/17 12:04:42;;;;;;;;;;;;;;;19.36;36.93;101117.00;4913391;28;128651;-58
2021/10/17 12:07:08;;;;;;;;;;;;;;;19.06;37.20;101113.09;4912356;28;117931;-60
2021/10/17 12:09:34;;;;;;;;;;;;;;;18.75;37.82;101120.34;4900808;28;128340;-59
2021/10/17 12:12:00;;;;;;;;;;;;;;;18.46;37.97;101117.91;4919727;28;109069;-59
2021/10/17 12:14:26;;;;;;;;;;;;;;;18.24;38.32;101118.66;4918749;28;104729;-58
2021/10/17 12:16:55;;;;;;;;;;;;;;;18.04;38.29;101117.94;4920255;28;98092;-58
2021/10/17 12:19:26;;;;;;;;;;;;;;;17.91;38.62;101118.69;4918569;28;128485;-59
2021/10/17 12:21:52;;;;;;;;;;;;;;;17.78;38.75;101120.31;4919302;28;98115;-57
2021/10/17 12:24:19;;;;;;;;;;;;;;;17.61;38.85;101118.13;4883922;28;126817;-59
2021/10/17 12:26:49;;;;;;;;;;;;;;;17.46;39.08;101117.56;4920575;28;97821;-59
2021/10/17 12:29:16;;;;;;;;;;;;;;;17.29;39.42;101116.19;4919403;28;97962;-59
2021/10/17 12:31:52;;;;;;;;;;;;;;;17.15;39.67;101120.75;4919023;28;97978;-57
2021/10/17 12:34:36;;;;;;;;;;;;;;;17.05;39.77;101113.53;4919243;28;97970;-57
2021/10/17 12:37:02;;;;;;;;;;;;;;;17.02;39.93;101107.91;4934227;28;100802;-59
2021/10/17 12:39:28;;;;;;;;;;;;;;;16.98;39.97;101106.84;4918158;28;128236;-60